Time;durP1;ratioP1;P1;durP2;ratioP2;P2;SDS_P1;SDS_P2;PMS_P1;PMS_P2;Temp;Humidity;BMP_temperature;BMP_pressure;BME280_temperature;BME280_humidity;BME280_pressure;Samples;Min_cycle;Max_cycle;Signal;HPM_P1;HPM_P2
2021/04/07 00:00:33;;;;;;;3.80;3.60;;;;;;;-2.14;100.00;97377.78;5036616;28;20578;-72
2021/04/07 00:03:00;;;;;;;4.13;3.83;;;;;;;-2.18;100.00;97374.53;5042184;28;20698;-72
2021/04/07 00:05:30;;;;;;;4.47;3.60;;;;;;;-2.29;100.00;97375.22;5039782;28;20210;-72
2021/04/07 00:07:57;;;;;;;3.60;3.40;;;;;;;-2.24;100.00;97369.75;5045500;28;20200;-72
2021/04/07 00:10:31;;;;;;;3.47;3.27;;;;;;;-2.16;100.00;97372.69;5044179;28;20227;-72
2021/04/07 00:12:58;;;;;;;3.50;3.30;;;;;;;-2.11;100.00;97370.63;5044746;28;20302;-73
2021/04/07 00:15:27;;;;;;;3.73;3.40;;;;;;;-2.25;100.00;97373.28;5042957;28;20207;-72
2021/04/07 00:17:55;;;;;;;4.43;2.93;;;;;;;-2.22;100.00;97370.50;5044865;28;20204;-71
2021/04/07 00:20:24;;;;;;;3.40;3.10;;;;;;;-2.16;100.00;97377.06;5044514;28;20602;-70
2021/04/07 00:22:51;;;;;;;4.50;3.70;;;;;;;-2.28;100.00;97379.50;5042703;28;20216;-71
2021/04/07 00:25:19;;;;;;;3.57;3.30;;;;;;;-2.22;100.00;97378.28;5040853;28;20227;-71
2021/04/07 00:27:53;;;;;;;4.50;4.10;;;;;;;-2.26;100.00;97372.47;5045673;28;20253;-71
2021/04/07 00:30:21;;;;;;;4.03;3.80;;;;;;;-2.10;100.00;97380.06;5044855;28;20235;-71
2021/04/07 00:32:49;;;;;;;4.07;3.67;;;;;;;-2.16;100.00;97379.66;5044290;28;20235;-70
2021/04/07 00:35:16;;;;;;;4.47;4.10;;;;;;;-2.30;100.00;97388.31;5043664;28;20203;-71
2021/04/07 00:37:43;;;;;;;4.80;4.40;;;;;;;-2.33;100.00;97390.19;5042259;28;20682;-71
2021/04/07 00:40:12;;;;;;;4.60;4.30;;;;;;;-2.15;100.00;97392.53;5044537;28;20312;-71
2021/04/07 00:42:39;;;;;;;4.57;4.20;;;;;;;-2.16;100.00;97383.06;5041716;28;20204;-72
2021/04/07 00:45:08;;;;;;;4.30;4.00;;;;;;;-2.28;100.00;97394.25;5044681;28;20215;-71
2021/04/07 00:47:35;;;;;;;4.83;4.40;;;;;;;-2.19;100.00;97394.50;5042902;28;20207;-72
2021/04/07 00:50:04;;;;;;;4.97;4.47;;;;;;;-2.15;100.00;97400.31;5042996;28;20227;-71
2021/04/07 00:52:31;;;;;;;5.30;4.80;;;;;;;-2.22;100.00;97404.25;5042685;28;20234;-72
2021/04/07 00:54:59;;;;;;;5.33;4.17;;;;;;;-2.14;100.00;97406.34;5043691;28;20211;-71
2021/04/07 00:57:26;;;;;;;5.77;5.27;;;;;;;-2.16;100.00;97403.84;5042979;28;20302;-72
2021/04/07 00:59:54;;;;;;;5.83;5.43;;;;;;;-2.34;100.00;97404.09;5041794;28;20242;-72
2021/04/07 01:02:22;;;;;;;6.53;5.23;;;;;;;-2.40;100.00;97396.72;5040774;28;20481;-72
2021/04/07 01:04:51;;;;;;;5.33;4.93;;;;;;;-2.23;100.00;97405.16;5040012;28;20213;-71
2021/04/07 01:07:19;;;;;;;5.97;4.63;;;;;;;-2.25;100.00;97409.63;5044181;28;20227;-71
2021/04/07 01:09:46;;;;;;;5.60;5.10;;;;;;;-2.34;100.00;97406.69;5044895;28;20219;-71
2021/04/07 01:12:13;;;;;;;5.20;4.80;;;;;;;-2.23;100.00;97415.56;5039874;28;20234;-71
2021/04/07 01:14:40;;;;;;;5.43;4.93;;;;;;;-2.23;100.00;97412.94;5044153;28;20207;-71
2021/04/07 01:17:08;;;;;;;6.80;5.43;;;;;;;-2.20;100.00;97423.13;5043528;28;20280;-71
2021/04/07 01:19:36;;;;;;;5.93;5.43;;;;;;;-2.23;100.00;97418.16;5043351;28;21007;-71
2021/04/07 01:22:04;;;;;;;6.10;5.43;;;;;;;-2.32;100.00;97414.38;5041064;28;20203;-71
2021/04/07 01:24:32;;;;;;;5.83;5.33;;;;;;;-2.43;100.00;97409.88;5044784;28;20239;-72
2021/04/07 01:27:00;;;;;;;6.87;6.17;;;;;;;-2.44;100.00;97409.97;5043866;28;20203;-71
2021/04/07 01:29:37;;;;;;;6.47;5.30;;;;;;;-2.44;100.00;97409.97;5043842;28;20235;-71
2021/04/07 01:32:05;;;;;;;5.17;4.77;;;;;;;-2.24;100.00;97413.88;5043125;28;20234;-71
2021/04/07 01:34:33;;;;;;;6.20;5.70;;;;;;;-2.35;100.00;97415.41;5040899;28;20234;-71
2021/04/07 01:37:01;;;;;;;5.67;5.07;;;;;;;-2.36;100.00;97418.09;5043587;28;20638;-71
2021/04/07 01:39:29;;;;;;;5.70;5.20;;;;;;;-2.37;100.00;97419.03;5044026;28;20220;-71
2021/04/07 01:41:58;;;;;;;6.33;5.73;;;;;;;-2.31;100.00;97412.63;5042677;28;20691;-71
2021/04/07 01:44:25;;;;;;;5.80;5.30;;;;;;;-2.38;100.00;97415.59;5043047;28;20821;-72
2021/04/07 01:46:52;;;;;;;5.53;5.13;;;;;;;-2.42;100.00;97413.28;5039102;28;20211;-71
2021/04/07 01:49:20;;;;;;;6.07;5.37;;;;;;;-2.43;100.00;97412.47;5043585;28;20234;-71
2021/04/07 01:51:47;;;;;;;6.33;5.70;;;;;;;-2.32;100.00;97416.97;5037946;28;20199;-71
2021/04/07 01:54:15;;;;;;;5.70;5.07;;;;;;;-2.30;100.00;97412.50;5043620;28;20220;-71
2021/04/07 01:56:46;;;;;;;6.67;6.17;;;;;;;-2.23;100.00;97420.75;5039441;28;20687;-71
2021/04/07 01:59:15;;;;;;;6.00;5.47;;;;;;;-2.31;100.00;97416.03;5039710;28;20223;-71
2021/04/07 02:01:43;;;;;;;6.73;6.10;;;;;;;-2.26;100.00;97426.97;5039604;28;20243;-71
2021/04/07 02:04:10;;;;;;;6.50;5.97;;;;;;;-2.35;100.00;97428.38;5043880;28;20200;-71
2021/04/07 02:06:37;;;;;;;6.93;6.23;;;;;;;-2.28;100.00;97420.22;5039615;28;20203;-72
2021/04/07 02:09:06;;;;;;;6.23;5.63;;;;;;;-2.27;100.00;97434.84;5037336;28;20247;-71
2021/04/07 02:11:33;;;;;;;6.53;5.93;;;;;;;-2.34;100.00;97440.44;5042618;28;20219;-71
2021/04/07 02:14:00;;;;;;;6.50;5.90;;;;;;;-2.25;100.00;97445.97;5041756;28;20228;-72
2021/04/07 02:16:28;;;;;;;6.07;5.53;;;;;;;-2.26;100.00;97441.72;5043205;28;20681;-71
2021/04/07 02:18:55;;;;;;;6.90;6.30;;;;;;;-2.28;100.00;97446.16;5040803;28;21222;-72
2021/04/07 02:21:23;;;;;;;7.33;5.90;;;;;;;-2.29;100.00;97450.50;5036529;28;20210;-72
2021/04/07 02:23:50;;;;;;;5.97;5.47;;;;;;;-2.24;100.00;97456.28;5042656;28;20218;-71
2021/04/07 02:26:17;;;;;;;6.70;6.20;;;;;;;-2.27;100.00;97453.88;5040858;28;20215;-71
2021/04/07 02:28:44;;;;;;;6.77;5.87;;;;;;;-2.33;100.00;97468.06;5042759;28;20695;-72
2021/04/07 02:31:11;;;;;;;6.33;5.73;;;;;;;-2.19;100.00;97455.97;5039083;28;20478;-72
2021/04/07 02:33:39;;;;;;;7.23;6.63;;;;;;;-2.22;100.00;97472.59;5042616;28;20231;-71
2021/04/07 02:36:06;;;;;;;6.87;6.27;;;;;;;-2.36;100.00;97475.19;5042596;28;20223;-72
2021/04/07 02:38:33;;;;;;;6.77;6.07;;;;;;;-2.39;100.00;97463.25;5042916;28;20573;-71
2021/04/07 02:41:00;;;;;;;7.80;7.10;;;;;;;-2.44;100.00;97474.84;5040027;28;20591;-72
2021/04/07 02:43:27;;;;;;;9.00;7.07;;;;;;;-2.37;100.00;97468.34;5038850;28;20694;-72
2021/04/07 02:45:54;;;;;;;8.13;7.37;;;;;;;-2.41;100.00;97472.06;5042541;28;20630;-72
2021/04/07 02:48:21;;;;;;;7.77;7.07;;;;;;;-2.44;100.00;97472.25;5040013;28;20218;-72
2021/04/07 02:50:49;;;;;;;7.87;6.57;;;;;;;-2.39;100.00;97473.63;5042490;28;20207;-72
2021/04/07 02:53:16;;;;;;;8.80;7.13;;;;;;;-2.39;100.00;97477.97;5040584;28;20238;-71
2021/04/07 02:55:43;;;;;;;8.60;7.23;;;;;;;-2.28;100.00;97479.91;5042966;28;20199;-72
2021/04/07 02:58:11;;;;;;;7.20;6.60;;;;;;;-2.24;100.00;97479.63;5041075;28;20313;-72
2021/04/07 03:00:38;;;;;;;7.43;6.67;;;;;;;-2.27;100.00;97476.38;5040058;28;20214;-71
2021/04/07 03:03:05;;;;;;;9.03;6.97;;;;;;;-2.30;100.00;97481.78;5041605;28;20196;-71
2021/04/07 03:05:32;;;;;;;8.80;6.90;;;;;;;-2.25;100.00;97488.34;5037928;28;20207;-72
2021/04/07 03:07:59;;;;;;;10.67;7.10;;;;;;;-2.28;100.00;97485.91;5041713;28;20211;-71
2021/04/07 03:10:26;;;;;;;8.80;7.23;;;;;;;-2.25;100.00;97487.50;5039828;28;20735;-72
2021/04/07 03:12:53;;;;;;;7.67;6.97;;;;;;;-2.26;100.00;97491.03;5042671;28;20242;-71
2021/04/07 03:15:20;;;;;;;5.80;5.40;;;;;;;-2.29;100.00;97497.22;5042423;28;20206;-71
2021/04/07 03:17:49;;;;;;;7.67;6.87;;;;;;;-2.33;100.00;97501.78;5041159;28;20655;-71
2021/04/07 03:20:17;;;;;;;7.13;6.43;;;;;;;-2.26;100.00;97501.41;5032888;28;20223;-71
2021/04/07 03:22:44;;;;;;;7.30;6.60;;;;;;;-2.36;100.00;97496.81;5041913;28;20656;-71
2021/04/07 03:25:13;;;;;;;7.30;6.70;;;;;;;-2.35;100.00;97495.88;5042652;28;20199;-72
2021/04/07 03:27:40;;;;;;;7.77;6.80;;;;;;;-2.42;100.00;97498.94;5041444;28;20294;-70
2021/04/07 03:30:08;;;;;;;7.50;6.57;;;;;;;-2.48;100.00;97494.94;5040809;28;20241;-71
2021/04/07 03:32:35;;;;;;;7.33;6.63;;;;;;;-2.39;100.00;97503.94;5040740;28;20218;-71
2021/04/07 03:35:02;;;;;;;8.10;6.57;;;;;;;-2.40;100.00;97502.25;5036118;28;20211;-71
2021/04/07 03:37:29;;;;;;;6.87;6.27;;;;;;;-2.40;100.00;97510.91;5038096;28;20676;-71
2021/04/07 03:39:56;;;;;;;7.47;6.53;;;;;;;-2.48;100.00;97515.69;5041097;28;20223;-71
2021/04/07 03:42:23;;;;;;;7.57;6.10;;;;;;;-2.55;100.00;97519.59;5045450;28;20587;-71
2021/04/07 03:44:50;;;;;;;6.40;5.80;;;;;;;-2.43;100.00;97516.28;5045843;28;20670;-71
2021/04/07 03:47:17;;;;;;;6.80;6.20;;;;;;;-2.53;100.00;97521.19;5045110;28;20223;-71
2021/04/07 03:49:44;;;;;;;8.50;6.10;;;;;;;-2.53;100.00;97521.19;5040613;28;20297;-71
2021/04/07 03:52:11;;;;;;;9.03;6.77;;;;;;;-2.47;100.00;97526.00;5045554;28;20211;-70
2021/04/07 03:54:39;;;;;;;7.20;6.33;;;;;;;-2.31;100.00;97529.41;5045405;28;20386;-73
2021/04/07 03:57:06;;;;;;;7.43;6.73;;;;;;;-2.48;100.00;97532.13;5045203;28;20215;-71
2021/04/07 03:59:34;;;;;;;5.97;5.43;;;;;;;-2.47;100.00;97531.19;5045601;28;20234;-71
2021/04/07 04:02:01;;;;;;;8.20;7.17;;;;;;;-2.30;100.00;97529.31;5042811;28;20231;-73
2021/04/07 04:04:28;;;;;;;8.33;6.20;;;;;;;-2.65;100.00;97532.31;5041082;28;20634;-72
2021/04/07 04:06:55;;;;;;;8.70;7.70;;;;;;;-2.70;100.00;97530.00;5045007;28;20204;-71
2021/04/07 04:09:22;;;;;;;7.83;6.87;;;;;;;-2.70;100.00;97542.13;5044933;28;20232;-72
2021/04/07 04:11:49;;;;;;;6.30;5.70;;;;;;;-2.84;100.00;97543.78;5041493;28;20571;-72
2021/04/07 04:14:16;;;;;;;10.37;6.83;;;;;;;-2.71;100.00;97546.47;5042134;28;20224;-71
2021/04/07 04:16:44;;;;;;;7.97;7.23;;;;;;;-2.81;100.00;97548.78;5044368;28;20418;-72
2021/04/07 04:19:11;;;;;;;6.57;5.97;;;;;;;-2.99;100.00;97555.88;5044653;28;20278;-72
2021/04/07 04:21:38;;;;;;;7.70;7.00;;;;;;;-2.96;100.00;97553.13;5045030;28;20218;-72
2021/04/07 04:24:05;;;;;;;7.13;6.43;;;;;;;-3.00;100.00;97564.59;5037183;28;20208;-74
2021/04/07 04:26:32;;;;;;;7.63;6.43;;;;;;;-3.09;100.00;97565.13;5045651;28;20219;-73
2021/04/07 04:28:59;;;;;;;6.53;5.93;;;;;;;-3.09;100.00;97562.53;5039795;28;20662;-73
2021/04/07 04:31:26;;;;;;;7.57;6.53;;;;;;;-3.09;100.00;97573.72;5042153;28;20211;-73
2021/04/07 04:33:54;;;;;;;7.00;6.40;;;;;;;-3.21;100.00;97570.09;5041887;28;20723;-74
2021/04/07 04:36:21;;;;;;;8.50;6.43;;;;;;;-3.18;100.00;97574.25;5044525;28;20206;-73
2021/04/07 04:38:48;;;;;;;7.30;6.30;;;;;;;-3.15;100.00;97576.69;5043986;28;20246;-74
2021/04/07 04:41:15;;;;;;;8.17;6.87;;;;;;;-3.14;100.00;97572.34;5045090;28;20211;-73
2021/04/07 04:43:42;;;;;;;9.03;6.90;;;;;;;-3.17;100.00;97575.94;5039422;28;20234;-75
2021/04/07 04:46:09;;;;;;;6.67;6.17;;;;;;;-3.11;100.00;97566.97;5044236;28;20215;-75
2021/04/07 04:48:36;;;;;;;6.90;6.20;;;;;;;-3.26;100.00;97581.66;5044222;28;20231;-75
2021/04/07 04:51:05;;;;;;;6.73;6.23;;;;;;;-3.32;100.00;97569.06;5042825;28;20231;-75
2021/04/07 04:53:32;;;;;;;7.47;6.77;;;;;;;-3.39;100.00;97574.59;5040410;28;20227;-74
2021/04/07 04:55:59;;;;;;;7.37;6.67;;;;;;;-3.41;100.00;97585.94;5038768;28;20208;-75
2021/04/07 04:58:26;;;;;;;8.27;7.33;;;;;;;-3.27;100.00;97583.41;5035129;28;20538;-75
2021/04/07 05:00:57;;;;;;;8.07;7.13;;;;;;;-3.28;100.00;97588.69;5036476;28;20200;-75
2021/04/07 05:03:24;;;;;;;7.77;7.10;;;;;;;-3.22;100.00;97589.19;5040976;28;20221;-75
2021/04/07 05:05:51;;;;;;;7.47;6.77;;;;;;;-3.20;100.00;97594.25;5039801;28;20203;-75
2021/04/07 05:08:19;;;;;;;10.33;7.37;;;;;;;-3.22;100.00;97603.88;5039035;28;20206;-73
2021/04/07 05:10:48;;;;;;;8.67;7.87;;;;;;;-3.18;100.00;97604.56;5036839;28;20529;-73
2021/04/07 05:13:15;;;;;;;9.13;8.10;;;;;;;-3.13;100.00;97611.13;5038581;28;20241;-73
2021/04/07 05:15:42;;;;;;;8.17;7.37;;;;;;;-3.07;100.00;97612.53;5039564;28;20219;-73
2021/04/07 05:18:12;;;;;;;8.03;7.33;;;;;;;-3.09;100.00;97622.16;5042087;28;20583;-75
2021/04/07 05:20:40;;;;;;;7.67;6.97;;;;;;;-3.09;100.00;97616.97;5041948;28;20207;-72
2021/04/07 05:23:07;;;;;;;8.27;7.10;;;;;;;-2.99;100.00;97632.84;5037122;28;20212;-72
2021/04/07 05:25:36;;;;;;;7.70;7.03;;;;;;;-2.97;100.00;97641.38;5041826;28;20214;-75
2021/04/07 05:28:03;;;;;;;8.53;7.63;;;;;;;-3.02;100.00;97643.41;5033206;28;20215;-73
2021/04/07 05:31:00;;;;;;;7.47;6.77;;;;;;;-3.01;100.00;97645.91;5033495;28;20222;-75
2021/04/07 05:33:18;;;;;;;6.60;5.90;;;;;;;-2.89;100.00;97653.88;5038230;28;20227;-72
2021/04/07 05:35:45;;;;;;;7.67;6.80;;;;;;;-2.92;100.00;97657.50;5035448;28;20205;-71
2021/04/07 05:38:13;;;;;;;6.80;6.20;;;;;;;-2.74;100.00;97665.13;5034336;28;20721;-72
2021/04/07 05:40:41;;;;;;;7.03;6.30;;;;;;;-2.71;100.00;97668.41;5032644;28;20844;-73
2021/04/07 05:43:09;;;;;;;9.13;8.23;;;;;;;-2.60;100.00;97672.13;5023795;28;20216;-73
2021/04/07 05:45:38;;;;;;;9.50;8.50;;;;;;;-2.56;100.00;97682.25;5013215;28;20219;-73
2021/04/07 05:48:07;;;;;;;9.70;8.73;;;;;;;-2.64;100.00;97687.06;5012928;28;20201;-71
2021/04/07 05:50:36;;;;;;;10.07;8.97;;;;;;;-2.44;100.00;97692.81;5016736;28;20204;-74
2021/04/07 05:53:03;;;;;;;8.87;7.87;;;;;;;-2.53;100.00;97684.66;5014786;28;20205;-72
2021/04/07 05:55:30;;;;;;;10.77;9.60;;;;;;;-2.54;100.00;97695.97;5016259;28;20303;-73
2021/04/07 05:57:59;;;;;;;7.27;6.57;;;;;;;-2.48;100.00;97697.34;5016219;28;20743;-70
2021/04/07 06:00:26;;;;;;;30.03;24.20;;;;;;;-2.51;100.00;97689.75;5015203;28;20223;-73
2021/04/07 06:02:54;;;;;;;13.20;11.80;;;;;;;-2.50;100.00;97705.25;5016105;28;20204;-72
2021/04/07 06:05:22;;;;;;;11.20;10.13;;;;;;;-2.36;100.00;97704.44;5014239;28;20890;-71
2021/04/07 06:07:49;;;;;;;10.87;9.87;;;;;;;-2.44;100.00;97709.25;5009374;28;20657;-70
2021/04/07 06:10:16;;;;;;;7.53;6.77;;;;;;;-2.41;100.00;97713.41;5017792;28;20228;-71
2021/04/07 06:12:43;;;;;;;8.93;6.20;;;;;;;-2.29;100.00;97724.84;5013281;28;20201;-69
2021/04/07 06:15:12;;;;;;;7.77;7.07;;;;;;;-2.25;99.92;97731.53;5012914;28;20221;-71
2021/04/07 06:17:42;;;;;;;11.03;7.70;;;;;;;-2.35;99.80;97736.41;5013969;28;20223;-70
2021/04/07 06:20:11;;;;;;;13.63;11.47;;;;;;;-2.41;99.96;97727.25;5013548;28;20235;-71
2021/04/07 06:22:38;;;;;;;8.70;7.13;;;;;;;-2.38;100.00;97737.44;5015369;28;20233;-70
2021/04/07 06:25:07;;;;;;;10.00;8.00;;;;;;;-2.38;98.60;97737.44;5015445;28;20215;-70
2021/04/07 06:27:34;;;;;;;11.00;9.90;;;;;;;-2.26;98.70;97729.84;5019369;28;20215;-70
2021/04/07 06:30:01;;;;;;;16.70;14.67;;;;;;;-2.25;98.17;97736.72;5009444;28;20411;-71
2021/04/07 06:32:29;;;;;;;69.70;40.33;;;;;;;-2.29;99.06;97741.25;5009952;28;20215;-70
2021/04/07 06:34:56;;;;;;;44.17;23.10;;;;;;;-2.26;98.29;97743.69;5012200;28;20228;-71
2021/04/07 06:37:23;;;;;;;10.10;7.33;;;;;;;-2.35;98.59;97742.44;5015265;28;20682;-71
2021/04/07 06:39:50;;;;;;;7.20;6.50;;;;;;;-2.29;97.01;97750.81;5012494;28;20239;-71
2021/04/07 06:42:19;;;;;;;10.87;7.57;;;;;;;-2.29;96.54;97756.00;5012045;28;20261;-70
2021/04/07 06:44:46;;;;;;;11.47;10.33;;;;;;;-2.24;96.98;97753.97;5012850;28;20204;-70
2021/04/07 06:47:13;;;;;;;7.83;7.03;;;;;;;-2.34;95.77;97758.84;5015645;28;20209;-71
2021/04/07 06:49:42;;;;;;;10.00;7.60;;;;;;;-2.35;96.99;97770.16;5012066;28;20259;-71
2021/04/07 06:52:16;;;;;;;9.57;8.67;;;;;;;-2.30;96.58;97752.53;5014958;28;20227;-72
2021/04/07 06:54:44;;;;;;;8.83;7.93;;;;;;;-2.31;96.51;97763.84;5016682;28;20234;-70
2021/04/07 06:57:11;;;;;;;7.57;6.80;;;;;;;-2.22;94.93;97773.72;5015515;28;20216;-71
2021/04/07 06:59:38;;;;;;;8.73;8.03;;;;;;;-2.23;94.99;97771.22;5012160;28;20227;-70
2021/04/07 07:02:05;;;;;;;9.30;6.47;;;;;;;-2.11;94.32;97782.66;5018003;28;20204;-71
2021/04/07 07:04:32;;;;;;;10.43;9.43;;;;;;;-1.94;94.51;97787.66;5010984;28;20742;-71
2021/04/07 07:07:00;;;;;;;9.10;8.30;;;;;;;-1.54;93.53;97781.88;5016669;28;20246;-71
2021/04/07 07:09:27;;;;;;;8.30;7.43;;;;;;;-1.43;92.16;97786.41;5015631;28;20712;-73
2021/04/07 07:11:54;;;;;;;9.20;7.63;;;;;;;-1.35;92.03;97802.38;5013903;28;20209;-72
2021/04/07 07:14:21;;;;;;;7.43;6.80;;;;;;;-1.36;90.24;97800.72;5012355;28;20225;-73
2021/04/07 07:16:49;;;;;;;5.97;5.47;;;;;;;-1.43;87.39;97807.22;5016234;28;20330;-73
2021/04/07 07:19:24;;;;;;;6.97;5.53;;;;;;;-1.43;87.62;97825.41;5014390;28;20236;-71
2021/04/07 07:21:56;;;;;;;5.87;5.37;;;;;;;-1.33;87.76;97817.88;5017744;28;20214;-70
2021/04/07 07:24:37;;;;;;;7.73;5.80;;;;;;;-1.42;86.96;97821.88;5012222;28;20954;-71
2021/04/07 07:27:06;;;;;;;6.20;5.60;;;;;;;-1.33;86.63;97825.66;5011164;28;20213;-70
2021/04/07 07:29:35;;;;;;;6.13;5.63;;;;;;;-1.34;86.54;97824.00;5014703;28;20228;-70
2021/04/07 07:32:03;;;;;;;7.23;6.63;;;;;;;-1.38;87.21;97836.38;5013712;28;20208;-72
2021/04/07 07:34:31;;;;;;;6.30;5.70;;;;;;;-1.49;84.93;97838.78;5016049;28;20228;-70
2021/04/07 07:36:59;;;;;;;9.23;5.80;;;;;;;-1.49;85.97;97829.22;5013687;28;20211;-72
2021/04/07 07:39:28;;;;;;;6.87;5.70;;;;;;;-1.40;86.49;97847.78;5008925;28;20238;-71
2021/04/07 07:41:59;;;;;;;8.73;6.13;;;;;;;-1.29;86.54;97852.34;5007932;28;20216;-71
2021/04/07 07:44:28;;;;;;;7.47;6.50;;;;;;;-1.21;85.16;97845.75;5013786;28;20212;-71
2021/04/07 07:47:01;;;;;;;6.33;5.73;;;;;;;-1.07;84.81;97851.84;5015068;28;20457;-69
2021/04/07 07:49:29;;;;;;;5.87;5.37;;;;;;;-0.97;83.87;97854.72;5011782;28;20228;-71
2021/04/07 07:51:57;;;;;;;6.70;6.10;;;;;;;-0.92;84.97;97858.72;5012567;28;20209;-74
2021/04/07 07:54:25;;;;;;;8.30;6.00;;;;;;;-0.88;83.11;97865.41;5015966;28;20238;-74
2021/04/07 07:56:53;;;;;;;6.17;5.77;;;;;;;-0.88;82.78;97862.81;5014361;28;20204;-72
2021/04/07 07:59:28;;;;;;;5.77;5.00;;;;;;;-0.72;81.99;97867.06;5010170;28;20324;-73
2021/04/07 08:01:55;;;;;;;5.10;4.70;;;;;;;-0.75;80.15;97868.09;5013570;28;20647;-75
2021/04/07 08:04:23;;;;;;;5.63;5.00;;;;;;;-0.48;79.23;97875.06;5012238;28;20287;-72
2021/04/07 08:06:50;;;;;;;5.47;4.93;;;;;;;-0.17;80.13;97878.31;5006553;28;20239;-75
2021/04/07 08:09:17;;;;;;;5.67;5.00;;;;;;;0.19;78.40;97870.81;5014879;28;20619;-73
2021/04/07 08:11:46;;;;;;;5.57;5.07;;;;;;;0.28;79.39;97883.25;5013144;28;20211;-72
2021/04/07 08:14:14;;;;;;;5.00;4.43;;;;;;;0.12;75.72;97891.25;5009812;28;20225;-73
2021/04/07 08:16:43;;;;;;;6.47;4.27;;;;;;;0.21;76.69;97892.41;5012301;28;20204;-74
2021/04/07 08:19:10;;;;;;;4.93;4.40;;;;;;;0.13;74.75;97892.06;5010609;28;20224;-74
2021/04/07 08:21:38;;;;;;;5.30;3.67;;;;;;;-0.12;73.26;97903.25;5011763;28;20673;-74
2021/04/07 08:24:08;;;;;;;5.53;4.00;;;;;;;-0.09;75.97;97900.44;5008846;28;20661;-73
2021/04/07 08:26:38;;;;;;;5.10;3.50;;;;;;;-0.22;74.59;97905.59;5014035;28;20228;-73
2021/04/07 08:29:05;;;;;;;3.93;3.63;;;;;;;-0.35;71.94;97909.00;5013187;28;20590;-76
2021/04/07 08:31:33;;;;;;;5.23;4.67;;;;;;;-0.33;73.42;97907.13;5017654;28;20227;-71
2021/04/07 08:34:03;;;;;;;4.30;3.97;;;;;;;-0.28;73.24;97903.38;5013489;28;20256;-72
2021/04/07 08:36:31;;;;;;;5.73;4.30;;;;;;;-0.29;73.88;97905.16;5013919;28;20208;-73
2021/04/07 08:39:03;;;;;;;5.43;4.93;;;;;;;-0.23;73.18;97906.53;5011518;28;20225;-72
2021/04/07 08:41:30;;;;;;;6.23;3.83;;;;;;;-0.10;74.99;97912.66;5015913;28;20215;-74
2021/04/07 08:43:57;;;;;;;5.13;3.90;;;;;;;-0.28;72.48;97908.59;5015525;28;20204;-73
2021/04/07 08:46:26;;;;;;;7.97;4.70;;;;;;;-0.31;73.24;97914.84;5013698;28;20200;-76
2021/04/07 08:48:53;;;;;;;3.77;3.47;;;;;;;-0.35;71.68;97919.41;5015799;28;20318;-72
2021/04/07 08:51:24;;;;;;;7.17;4.03;;;;;;;-0.16;72.51;97921.69;5019287;28;20211;-73
2021/04/07 08:53:56;;;;;;;5.80;4.07;;;;;;;-0.05;73.83;97914.94;5018880;28;20221;-75
2021/04/07 08:56:26;;;;;;;4.00;3.70;;;;;;;0.16;70.70;97930.94;5012799;28;20200;-72
2021/04/07 08:58:54;;;;;;;6.40;3.67;;;;;;;-0.06;70.01;97927.13;5014543;28;20235;-73
2021/04/07 09:01:24;;;;;;;3.90;3.60;;;;;;;0.06;70.09;97929.88;5015779;28;20200;-74
2021/04/07 09:04:03;;;;;;;8.43;4.30;;;;;;;0.23;70.04;97934.84;5015653;28;20215;-73
2021/04/07 09:06:31;;;;;;;4.90;3.60;;;;;;;0.29;69.67;97920.56;5016672;28;20319;-73
2021/04/07 09:08:59;;;;;;;3.73;3.37;;;;;;;0.57;69.06;97921.34;5015295;28;20678;-72
2021/04/07 09:11:29;;;;;;;4.33;3.70;;;;;;;0.44;66.97;97916.09;5013029;28;20322;-72
2021/04/07 09:14:00;;;;;;;5.87;3.57;;;;;;;0.71;69.32;97923.03;5019288;28;20799;-72
2021/04/07 09:16:39;;;;;;;6.53;3.90;;;;;;;0.70;66.09;97916.13;5014246;28;20208;-72
2021/04/07 09:19:19;;;;;;;2.83;2.60;;;;;;;0.42;66.64;97939.69;5015457;28;20762;-71
2021/04/07 09:21:58;;;;;;;4.73;3.80;;;;;;;0.25;69.01;97926.91;5017902;28;20208;-72
2021/04/07 09:24:28;;;;;;;6.67;4.23;;;;;;;0.13;68.29;97938.97;5015094;28;20231;-72
2021/04/07 09:26:58;;;;;;;3.70;3.40;;;;;;;0.18;70.77;97942.09;5014150;28;20755;-71
2021/04/07 09:29:25;;;;;;;3.60;3.30;;;;;;;0.05;69.01;97943.84;5012222;28;20877;-72
2021/04/07 09:31:53;;;;;;;4.80;3.90;;;;;;;0.21;70.57;97951.50;5012987;28;20200;-71
2021/04/07 09:34:21;;;;;;;7.13;3.70;;;;;;;0.25;68.97;97942.56;5015027;28;20224;-71
2021/04/07 09:36:49;;;;;;;4.17;3.20;;;;;;;0.30;68.60;97945.69;5014812;28;20590;-71
2021/04/07 09:39:23;;;;;;;4.93;2.70;;;;;;;0.56;67.82;97941.34;5013681;28;20955;-70
2021/04/07 09:41:51;;;;;;;4.20;3.63;;;;;;;0.52;68.55;97949.50;5016315;28;20208;-72
2021/04/07 09:44:18;;;;;;;3.50;2.73;;;;;;;0.46;69.10;97948.13;5014721;28;20205;-73
2021/04/07 09:46:51;;;;;;;4.17;3.53;;;;;;;0.81;69.15;97944.13;5016421;28;20216;-73
2021/04/07 09:49:18;;;;;;;3.97;3.23;;;;;;;0.70;68.19;97950.06;5010386;28;20287;-74
2021/04/07 09:51:46;;;;;;;4.30;3.27;;;;;;;0.43;68.14;97950.94;5012270;28;20576;-73
2021/04/07 09:54:20;;;;;;;5.43;3.40;;;;;;;0.43;69.44;97950.94;5015640;28;20310;-77
2021/04/07 09:56:57;;;;;;;5.53;3.13;;;;;;;0.53;69.28;97953.78;5014499;28;20205;-77
2021/04/07 09:59:35;;;;;;;4.53;3.10;;;;;;;0.76;67.52;97952.25;5017346;28;20224;-76
2021/04/07 10:02:03;;;;;;;4.63;3.87;;;;;;;0.83;65.10;97963.94;5017932;28;20663;-77
2021/04/07 10:04:31;;;;;;;4.00;2.90;;;;;;;1.07;65.96;97965.84;5010010;28;20216;-77
2021/04/07 10:07:09;;;;;;;5.60;2.30;;;;;;;0.98;63.67;97966.47;5014965;28;20207;-77
2021/04/07 10:09:37;;;;;;;4.63;2.70;;;;;;;0.93;63.84;97958.94;5009834;28;20589;-77
2021/04/07 10:12:07;;;;;;;4.17;2.70;;;;;;;0.92;63.21;97945.97;5012870;28;20215;-77
2021/04/07 10:14:34;;;;;;;2.73;2.53;;;;;;;0.75;63.51;97960.16;5015349;28;20224;-77
2021/04/07 10:17:11;;;;;;;3.47;2.37;;;;;;;0.89;63.91;97957.47;5011624;28;20205;-77
2021/04/07 10:19:38;;;;;;;4.83;2.67;;;;;;;0.91;64.93;97962.56;5012661;28;20235;-77
2021/04/07 10:22:13;;;;;;;3.20;2.87;;;;;;;0.56;65.83;97966.63;5010698;28;20685;-74
2021/04/07 10:24:41;;;;;;;6.43;3.50;;;;;;;0.64;67.55;97968.72;5016585;28;20204;-77
2021/04/07 10:27:09;;;;;;;3.57;2.80;;;;;;;0.81;68.57;97954.56;5015691;28;20236;-77
2021/04/07 10:29:38;;;;;;;3.13;2.73;;;;;;;0.95;68.39;97967.50;5013143;28;20228;-76
2021/04/07 10:32:05;;;;;;;5.10;3.23;;;;;;;1.04;66.54;97963.44;5012122;28;20648;-76
2021/04/07 10:34:34;;;;;;;5.10;3.77;;;;;;;0.79;67.34;97967.69;5012280;28;20708;-76
2021/04/07 10:37:02;;;;;;;4.87;3.67;;;;;;;0.72;69.05;97974.25;5015713;28;20675;-76
2021/04/07 10:39:36;;;;;;;4.70;2.70;;;;;;;0.90;68.56;97973.94;5019032;28;20251;-76
2021/04/07 10:42:05;;;;;;;4.57;3.03;;;;;;;0.69;66.96;97975.28;5010407;28;20587;-76
2021/04/07 10:44:34;;;;;;;4.33;3.20;;;;;;;0.92;68.00;97972.06;5015227;28;20299;-76
2021/04/07 10:47:01;;;;;;;7.63;4.17;;;;;;;1.06;67.79;97968.53;5012183;28;20204;-75
2021/04/07 10:49:28;;;;;;;3.87;3.57;;;;;;;0.92;68.72;97974.69;5013275;28;20313;-76
2021/04/07 10:52:00;;;;;;;3.93;3.03;;;;;;;0.95;70.93;97977.94;5015218;28;20205;-76
2021/04/07 10:54:28;;;;;;;4.70;2.80;;;;;;;0.99;71.52;97982.00;5017500;28;20236;-76
2021/04/07 10:57:00;;;;;;;3.00;2.80;;;;;;;0.67;71.47;97987.59;5013176;28;20205;-76
2021/04/07 10:59:31;;;;;;;3.13;2.93;;;;;;;0.56;74.37;97983.09;5015935;28;20795;-76
2021/04/07 11:01:58;;;;;;;5.37;2.80;;;;;;;0.30;74.12;97999.63;5008799;28;20212;-76
2021/04/07 11:04:33;;;;;;;3.57;3.23;;;;;;;0.33;75.95;97999.41;5007596;28;20715;-76
2021/04/07 11:07:01;;;;;;;3.10;2.80;;;;;;;0.59;76.14;97989.88;5010225;28;20245;-76
2021/04/07 11:09:32;;;;;;;4.40;3.20;;;;;;;0.79;75.57;97995.56;5012854;28;20239;-75
2021/04/07 11:12:00;;;;;;;3.27;2.50;;;;;;;0.67;71.25;97997.22;5010433;28;20213;-76
2021/04/07 11:14:27;;;;;;;2.67;2.47;;;;;;;0.77;72.07;97997.44;5011942;28;20259;-76
2021/04/07 11:16:59;;;;;;;2.50;2.40;;;;;;;1.06;69.70;97990.25;5015861;28;20260;-75
2021/04/07 11:19:33;;;;;;;3.60;2.40;;;;;;;1.11;69.23;97985.56;5009657;28;21035;-75
2021/04/07 11:22:00;;;;;;;2.67;2.57;;;;;;;0.94;68.76;98001.50;5034338;28;20207;-75
2021/04/07 11:24:27;;;;;;;3.27;2.93;;;;;;;0.92;69.95;97993.78;5038631;28;20207;-74
2021/04/07 11:26:55;;;;;;;3.53;2.80;;;;;;;0.70;72.83;97987.38;5034831;28;20212;-74
2021/04/07 11:29:22;;;;;;;3.47;2.67;;;;;;;0.63;74.49;98008.78;5033280;28;20247;-74
2021/04/07 11:31:51;;;;;;;3.47;3.20;;;;;;;0.36;76.09;98012.25;5037661;28;20250;-73
2021/04/07 11:34:24;;;;;;;3.13;2.80;;;;;;;0.19;79.09;98029.81;5038839;28;20707;-73